Time;durP1;ratioP1;P1;durP2;ratioP2;P2;SDS_P1;SDS_P2;PMS_P1;PMS_P2;Temp;Humidity;BMP_temperature;BMP_pressure;BME280_temperature;BME280_humidity;BME280_pressure;Samples;Min_cycle;Max_cycle;Signal;HPM_P1;HPM_P2
2021/11/23 00:00:49;;;;;;;14.63;7.70;;;2.00;99.90;;;;;;5098669;28;20027;-71
2021/11/23 00:03:18;;;;;;;15.27;8.50;;;2.00;99.90;;;;;;5098069;28;20016;-71
2021/11/23 00:05:47;;;;;;;15.73;8.40;;;2.00;99.90;;;;;;5098088;28;20028;-71
2021/11/23 00:08:15;;;;;;;15.30;8.68;;;1.90;99.90;;;;;;5098629;28;20365;-71
2021/11/23 00:10:43;;;;;;;18.77;8.75;;;1.90;99.90;;;;;;5098086;28;20020;-71
2021/11/23 00:13:12;;;;;;;17.35;9.27;;;1.90;99.90;;;;;;5097960;28;20016;-71
2021/11/23 00:15:40;;;;;;;23.02;8.80;;;1.90;99.90;;;;;;5097245;28;20081;-71
2021/11/23 00:18:09;;;;;;;18.20;8.75;;;1.90;99.90;;;;;;5098325;28;20161;-71
2021/11/23 00:20:38;;;;;;;17.63;9.38;;;2.00;99.90;;;;;;5098101;28;20107;-71
2021/11/23 00:23:05;;;;;;;16.45;9.27;;;2.10;99.90;;;;;;5098753;28;20020;-71
2021/11/23 00:25:33;;;;;;;17.50;8.60;;;2.10;99.90;;;;;;5098957;28;20035;-71
2021/11/23 00:28:00;;;;;;;20.98;9.20;;;2.20;99.90;;;;;;5098579;28;20035;-71
2021/11/23 00:30:30;;;;;;;17.17;9.23;;;2.20;99.90;;;;;;5098542;28;20051;-71
2021/11/23 00:32:58;;;;;;;21.70;10.15;;;2.20;99.90;;;;;;5098509;28;20024;-71
2021/11/23 00:35:27;;;;;;;13.40;8.05;;;2.20;99.90;;;;;;5098303;28;20038;-71
2021/11/23 00:37:55;;;;;;;17.63;9.15;;;2.20;99.90;;;;;;5098673;28;20027;-71
2021/11/23 00:40:24;;;;;;;15.07;7.80;;;2.30;99.90;;;;;;5098094;28;20016;-71
2021/11/23 00:42:51;;;;;;;18.42;8.98;;;2.30;99.90;;;;;;5097708;28;20024;-71
2021/11/23 00:45:19;;;;;;;18.42;8.80;;;2.30;99.90;;;;;;5098031;28;20027;-71
2021/11/23 00:47:47;;;;;;;17.27;8.98;;;2.30;99.90;;;;;;5097305;28;20073;-71
2021/11/23 00:50:15;;;;;;;19.15;8.77;;;2.30;99.90;;;;;;5096106;28;20031;-71
2021/11/23 00:52:44;;;;;;;18.58;9.52;;;2.30;99.90;;;;;;5097578;28;20054;-71
2021/11/23 00:55:12;;;;;;;14.18;8.80;;;2.30;99.90;;;;;;5096937;28;20101;-71
2021/11/23 00:57:40;;;;;;;12.77;7.40;;;2.30;99.90;;;;;;5097400;28;20031;-71
2021/11/23 01:00:11;;;;;;;14.95;9.38;;;2.30;99.90;;;;;;5097974;28;20025;-71
2021/11/23 01:02:38;;;;;;;17.63;8.63;;;2.20;99.90;;;;;;5097685;28;20073;-71
2021/11/23 01:05:06;;;;;;;15.82;8.55;;;2.20;99.90;;;;;;5097957;28;20024;-71
2021/11/23 01:07:34;;;;;;;18.55;9.43;;;2.10;99.90;;;;;;5098535;28;20110;-71
2021/11/23 01:10:04;;;;;;;15.35;7.65;;;2.00;99.90;;;;;;5098114;28;20024;-71
2021/11/23 01:12:32;;;;;;;15.35;8.55;;;1.90;99.90;;;;;;5098377;28;20041;-71
2021/11/23 01:15:00;;;;;;;19.90;10.15;;;1.90;99.90;;;;;;5098389;28;20024;-71
2021/11/23 01:17:28;;;;;;;18.27;9.07;;;1.80;99.90;;;;;;5097397;28;20026;-71
2021/11/23 01:19:55;;;;;;;21.15;9.43;;;1.70;99.90;;;;;;5097314;28;20312;-71
2021/11/23 01:22:22;;;;;;;19.80;8.50;;;1.50;99.90;;;;;;5096692;28;20019;-71
2021/11/23 01:24:50;;;;;;;18.35;8.27;;;1.40;99.90;;;;;;5097371;28;20016;-71
2021/11/23 01:27:17;;;;;;;19.02;9.52;;;1.30;99.90;;;;;;5096317;28;20048;-71
2021/11/23 01:29:45;;;;;;;18.83;10.00;;;1.20;99.90;;;;;;5096874;28;20024;-71
2021/11/23 01:32:13;;;;;;;17.98;8.73;;;1.10;99.90;;;;;;5096670;28;20031;-71
2021/11/23 01:34:40;;;;;;;20.73;9.13;;;1.00;99.90;;;;;;5097266;28;20020;-71
2021/11/23 01:37:08;;;;;;;19.08;9.75;;;1.00;99.90;;;;;;5096970;28;20027;-71
2021/11/23 01:39:35;;;;;;;18.98;9.05;;;0.90;99.90;;;;;;5098195;28;20024;-71
2021/11/23 01:42:03;;;;;;;17.60;9.15;;;0.80;99.90;;;;;;5096951;28;20417;-71
2021/11/23 01:44:31;;;;;;;15.85;9.18;;;0.70;99.90;;;;;;5097511;28;20020;-71
2021/11/23 01:46:58;;;;;;;21.08;10.15;;;0.70;99.90;;;;;;5097455;28;20048;-71
2021/11/23 01:49:26;;;;;;;20.65;10.75;;;0.60;99.90;;;;;;5097820;28;20035;-71
2021/11/23 01:51:54;;;;;;;20.27;10.57;;;0.60;99.90;;;;;;5097321;28;20047;-71
2021/11/23 01:54:22;;;;;;;23.30;10.90;;;0.50;99.90;;;;;;5097128;28;20017;-71
2021/11/23 01:56:49;;;;;;;26.27;11.70;;;0.50;99.90;;;;;;5096669;28;20333;-71
2021/11/23 01:59:16;;;;;;;22.45;10.57;;;0.50;99.90;;;;;;5096577;28;20049;-71
2021/11/23 02:01:44;;;;;;;24.23;11.35;;;0.60;99.90;;;;;;5096429;28;20135;-71
2021/11/23 02:04:12;;;;;;;20.48;11.45;;;0.60;99.90;;;;;;5096973;28;20021;-71
2021/11/23 02:06:39;;;;;;;26.25;12.75;;;0.70;99.90;;;;;;5096225;28;20400;-71
2021/11/23 02:09:07;;;;;;;25.27;12.73;;;0.80;99.90;;;;;;5096495;28;20348;-71
2021/11/23 02:11:35;;;;;;;24.00;12.93;;;0.90;99.90;;;;;;5096880;28;20018;-71
2021/11/23 02:14:04;;;;;;;24.08;11.77;;;1.00;99.90;;;;;;5096872;28;20020;-71
2021/11/23 02:16:32;;;;;;;21.27;10.75;;;1.10;99.90;;;;;;5097200;28;20066;-71
2021/11/23 02:19:00;;;;;;;21.83;11.68;;;1.10;99.90;;;;;;5097338;28;20444;-71
2021/11/23 02:21:27;;;;;;;20.27;10.88;;;1.20;99.90;;;;;;5095995;28;20039;-71
2021/11/23 02:23:55;;;;;;;17.45;10.43;;;1.20;99.90;;;;;;5097170;28;20020;-71
2021/11/23 02:26:22;;;;;;;22.05;11.93;;;1.30;99.90;;;;;;5097108;28;20070;-70
2021/11/23 02:28:51;;;;;;;22.38;11.25;;;1.30;99.90;;;;;;5097778;28;20031;-71
2021/11/23 02:31:18;;;;;;;21.60;11.55;;;1.30;99.90;;;;;;5096994;28;20056;-71
2021/11/23 02:33:46;;;;;;;21.50;10.70;;;1.30;99.90;;;;;;5096818;28;20028;-71
2021/11/23 02:36:13;;;;;;;19.75;11.70;;;1.40;99.90;;;;;;5096002;28;20423;-71
2021/11/23 02:38:41;;;;;;;21.75;10.93;;;1.40;99.90;;;;;;5097339;28;20024;-71
2021/11/23 02:41:11;;;;;;;24.67;12.13;;;1.50;99.90;;;;;;5099773;28;20066;-71
2021/11/23 02:43:40;;;;;;;22.27;11.40;;;1.50;99.90;;;;;;5098671;28;20027;-71
2021/11/23 02:46:08;;;;;;;21.30;11.02;;;1.50;99.90;;;;;;5099662;28;20028;-71
2021/11/23 02:48:40;;;;;;;18.67;9.68;;;1.60;99.90;;;;;;5099798;28;20156;-71
2021/11/23 02:51:17;;;;;;;22.40;11.35;;;1.60;99.90;;;;;;5099839;28;20055;-71
2021/11/23 02:53:49;;;;;;;21.65;10.82;;;1.70;99.90;;;;;;5099709;28;20020;-71
2021/11/23 02:56:17;;;;;;;21.65;11.32;;;1.80;99.90;;;;;;5100226;28;20060;-71
2021/11/23 02:58:48;;;;;;;17.30;9.88;;;1.80;99.90;;;;;;5100485;28;20023;-71
2021/11/23 03:01:19;;;;;;;20.10;10.27;;;1.90;99.90;;;;;;5100871;28;20447;-71
2021/11/23 03:03:47;;;;;;;23.23;10.63;;;2.00;99.90;;;;;;5100360;28;20070;-71
2021/11/23 03:06:17;;;;;;;19.45;11.25;;;2.10;99.90;;;;;;5100208;28;20019;-71
2021/11/23 03:08:50;;;;;;;22.85;10.48;;;2.10;99.90;;;;;;5100340;28;20431;-71
2021/11/23 03:11:21;;;;;;;19.77;9.68;;;2.10;99.90;;;;;;5100536;28;20048;-71
2021/11/23 03:13:49;;;;;;;21.35;10.48;;;2.20;99.90;;;;;;5098082;28;20028;-71
2021/11/23 03:16:17;;;;;;;20.73;10.38;;;2.20;99.90;;;;;;5098016;28;20416;-71
2021/11/23 03:18:44;;;;;;;18.98;10.68;;;2.20;99.90;;;;;;5099221;28;20058;-71
2021/11/23 03:21:12;;;;;;;21.40;9.95;;;2.20;99.90;;;;;;5098959;28;20020;-71
2021/11/23 03:23:39;;;;;;;25.38;10.23;;;2.20;99.90;;;;;;5099551;28;20103;-71
2021/11/23 03:26:06;;;;;;;17.55;9.15;;;2.20;99.90;;;;;;5098878;28;20412;-71
2021/11/23 03:28:33;;;;;;;17.70;10.77;;;2.20;99.90;;;;;;5099025;28;20028;-71
2021/11/23 03:31:01;;;;;;;17.55;9.65;;;2.20;99.90;;;;;;5099411;28;20077;-71
2021/11/23 03:33:28;;;;;;;16.10;9.48;;;2.20;99.90;;;;;;5099607;28;20530;-71
2021/11/23 03:35:55;;;;;;;17.90;9.80;;;2.30;99.90;;;;;;5098508;28;20039;-71
2021/11/23 03:38:24;;;;;;;21.63;10.30;;;2.30;99.90;;;;;;5100211;28;20379;-71
2021/11/23 03:40:51;;;;;;;19.98;10.85;;;2.30;99.90;;;;;;5100096;28;20113;-71
2021/11/23 03:43:19;;;;;;;25.48;10.90;;;2.30;99.90;;;;;;5100009;28;20426;-71
2021/11/23 03:45:46;;;;;;;21.17;11.20;;;2.40;99.90;;;;;;5098376;28;20024;-71
2021/11/23 03:48:13;;;;;;;20.52;10.38;;;2.40;99.90;;;;;;5099592;28;20078;-71
2021/11/23 03:50:41;;;;;;;21.80;11.68;;;2.40;99.90;;;;;;5098021;28;20030;-71
2021/11/23 03:53:09;;;;;;;21.60;11.20;;;2.40;99.90;;;;;;5098644;28;20082;-71
2021/11/23 03:55:38;;;;;;;21.35;11.13;;;2.40;99.90;;;;;;5098059;28;20458;-71
2021/11/23 03:58:05;;;;;;;18.88;10.70;;;2.40;99.90;;;;;;5098390;28;20035;-71
2021/11/23 04:00:33;;;;;;;24.42;12.32;;;2.40;99.90;;;;;;5097109;28;20085;-71
2021/11/23 04:03:00;;;;;;;20.67;11.75;;;2.40;99.90;;;;;;5097069;28;20454;-71
2021/11/23 04:05:28;;;;;;;24.48;12.80;;;2.40;99.90;;;;;;5098351;28;20381;-71
2021/11/23 04:07:55;;;;;;;20.23;11.50;;;2.40;99.90;;;;;;5098088;28;20060;-70
2021/11/23 04:10:25;;;;;;;23.92;11.82;;;2.40;99.90;;;;;;5098900;28;20043;-71
2021/11/23 04:12:52;;;;;;;21.25;11.07;;;2.40;99.90;;;;;;5099422;28;20031;-71
2021/11/23 04:15:20;;;;;;;27.35;11.90;;;2.40;99.90;;;;;;5099368;28;20020;-71
2021/11/23 04:17:48;;;;;;;26.23;12.27;;;2.50;99.90;;;;;;5097633;28;20323;-71
2021/11/23 04:20:16;;;;;;;26.15;12.77;;;2.50;99.90;;;;;;5099165;28;20135;-71
2021/11/23 04:22:43;;;;;;;21.65;11.13;;;2.50;99.90;;;;;;5098727;28;20016;-71
2021/11/23 04:25:12;;;;;;;24.95;13.00;;;2.50;99.90;;;;;;5099285;28;20039;-71
2021/11/23 04:27:39;;;;;;;28.92;12.13;;;2.50;99.90;;;;;;5097570;28;20328;-71
2021/11/23 04:30:10;;;;;;;25.10;12.23;;;2.50;99.90;;;;;;5096919;28;20035;-71
2021/11/23 04:32:38;;;;;;;27.38;13.30;;;2.50;99.90;;;;;;5097606;28;20106;-71
2021/11/23 04:35:07;;;;;;;25.35;12.77;;;2.50;99.90;;;;;;5096457;28;20404;-71
2021/11/23 04:37:35;;;;;;;31.48;12.40;;;2.50;99.90;;;;;;5097769;28;20019;-71
2021/11/23 04:40:04;;;;;;;23.80;13.45;;;2.50;99.90;;;;;;5098046;28;20047;-71
2021/11/23 04:42:32;;;;;;;29.70;12.18;;;2.50;99.90;;;;;;5097479;28;20020;-71
2021/11/23 04:44:59;;;;;;;26.92;12.23;;;2.50;99.90;;;;;;5096493;28;20032;-71
2021/11/23 04:47:27;;;;;;;27.52;13.13;;;2.50;99.90;;;;;;5096224;28;20392;-71
2021/11/23 04:49:55;;;;;;;30.70;14.73;;;2.50;99.90;;;;;;5097219;28;20031;-71
2021/11/23 04:52:23;;;;;;;26.80;13.20;;;2.60;99.90;;;;;;5098151;28;20411;-71
2021/11/23 04:54:50;;;;;;;28.02;12.98;;;2.50;99.90;;;;;;5098292;28;20527;-71
2021/11/23 04:57:17;;;;;;;25.30;12.38;;;2.60;99.90;;;;;;5098003;28;20095;-71
2021/11/23 04:59:45;;;;;;;24.98;13.20;;;2.60;99.90;;;;;;5098411;28;20026;-71
2021/11/23 05:02:12;;;;;;;26.38;13.00;;;2.60;99.90;;;;;;5097823;28;20420;-71
2021/11/23 05:04:40;;;;;;;30.27;13.25;;;2.60;99.90;;;;;;5098449;28;20035;-71
2021/11/23 05:07:08;;;;;;;94.22;47.03;;;2.60;99.90;;;;;;5096080;28;20123;-71
2021/11/23 05:09:35;;;;;;;30.58;13.98;;;2.60;99.90;;;;;;5097081;28;20027;-71
2021/11/23 05:12:02;;;;;;;32.22;14.35;;;2.70;99.90;;;;;;5097520;28;20072;-71
2021/11/23 05:14:30;;;;;;;31.05;13.68;;;2.70;99.90;;;;;;5097356;28;20053;-71
2021/11/23 05:16:57;;;;;;;25.80;13.73;;;2.70;99.90;;;;;;5097382;28;20103;-71
2021/11/23 05:19:25;;;;;;;28.05;13.70;;;2.60;99.90;;;;;;5096440;28;20024;-71
2021/11/23 05:21:52;;;;;;;25.73;13.57;;;2.70;99.90;;;;;;5096768;28;20040;-71
2021/11/23 05:24:19;;;;;;;27.90;13.05;;;2.70;99.90;;;;;;5097453;28;20021;-71
2021/11/23 05:26:47;;;;;;;25.10;12.35;;;2.70;99.90;;;;;;5097046;28;20020;-71
2021/11/23 05:29:14;;;;;;;27.50;12.68;;;2.70;99.90;;;;;;5097685;28;20048;-71
2021/11/23 05:31:42;;;;;;;27.90;14.75;;;2.70;99.90;;;;;;5098147;28;20042;-71
2021/11/23 05:34:09;;;;;;;31.73;15.02;;;2.70;99.90;;;;;;5096630;28;20123;-71
2021/11/23 05:36:36;;;;;;;23.60;12.73;;;2.70;99.90;;;;;;5096393;28;20428;-71
2021/11/23 05:39:05;;;;;;;26.42;12.85;;;2.70;99.90;;;;;;5098061;28;20027;-71
2021/11/23 05:41:33;;;;;;;27.67;13.32;;;2.70;99.90;;;;;;5098297;28;20341;-71
2021/11/23 05:44:01;;;;;;;26.77;13.68;;;2.80;99.90;;;;;;5098198;28;20046;-71
2021/11/23 05:46:28;;;;;;;24.45;12.35;;;2.80;99.90;;;;;;5096541;28;20055;-71
2021/11/23 05:48:55;;;;;;;24.38;13.07;;;2.70;99.90;;;;;;5096510;28;20020;-71
2021/11/23 05:51:23;;;;;;;24.42;13.40;;;2.70;99.90;;;;;;5095962;28;20035;-71
2021/11/23 05:53:51;;;;;;;26.20;13.77;;;2.80;99.90;;;;;;5095367;28;20126;-71
2021/11/23 05:56:18;;;;;;;25.42;12.75;;;2.80;99.90;;;;;;5095056;28;20047;-71
2021/11/23 05:58:46;;;;;;;22.98;12.63;;;2.80;99.90;;;;;;5096348;28;20024;-71
2021/11/23 06:01:14;;;;;;;21.98;12.23;;;2.80;99.90;;;;;;5095312;28;20470;-71
2021/11/23 06:03:42;;;;;;;26.73;14.38;;;2.80;99.90;;;;;;5096456;28;20020;-72
2021/11/23 06:06:13;;;;;;;27.73;14.00;;;2.80;99.90;;;;;;5097251;28;20098;-71
2021/11/23 06:08:40;;;;;;;22.20;12.80;;;2.90;99.90;;;;;;5097436;28;20034;-71
2021/11/23 06:11:09;;;;;;;32.70;15.85;;;2.90;99.90;;;;;;5096157;28;20113;-71
2021/11/23 06:13:37;;;;;;;30.45;14.20;;;2.90;99.90;;;;;;5097402;28;20062;-71
2021/11/23 06:16:06;;;;;;;221.40;70.60;;;2.90;99.90;;;;;;5100088;28;20024;-71
2021/11/23 06:18:34;;;;;;;41.40;18.52;;;2.90;99.90;;;;;;5101277;28;20028;-71
2021/11/23 06:21:04;;;;;;;252.18;83.10;;;2.90;99.90;;;;;;5099844;28;20364;-71
2021/11/23 06:23:33;;;;;;;127.60;47.30;;;2.90;99.90;;;;;;5100694;28;20292;-71
2021/11/23 06:26:01;;;;;;;37.85;19.73;;;2.90;99.90;;;;;;5100637;28;20016;-71
2021/11/23 06:28:28;;;;;;;28.35;13.02;;;3.00;99.90;;;;;;5099388;28;20028;-71
2021/11/23 06:30:55;;;;;;;23.25;11.85;;;3.00;99.90;;;;;;5099586;28;20032;-71
2021/11/23 06:33:24;;;;;;;22.33;11.73;;;3.00;99.90;;;;;;5100655;28;20020;-71
2021/11/23 06:35:51;;;;;;;17.48;10.82;;;3.00;99.90;;;;;;5099841;28;20020;-71
2021/11/23 06:38:18;;;;;;;20.55;11.38;;;3.00;99.90;;;;;;5099915;28;20361;-71
2021/11/23 06:40:46;;;;;;;21.67;11.07;;;3.00;99.90;;;;;;5099862;28;20054;-71
2021/11/23 06:43:14;;;;;;;20.73;11.63;;;3.00;99.90;;;;;;5100663;28;20020;-70
2021/11/23 06:45:42;;;;;;;20.15;10.73;;;3.00;99.90;;;;;;5101212;28;20020;-70
2021/11/23 06:48:11;;;;;;;21.55;12.40;;;3.00;99.90;;;;;;5099486;28;20115;-71
2021/11/23 06:50:40;;;;;;;19.13;11.07;;;3.10;99.90;;;;;;5101034;28;20024;-71
2021/11/23 06:53:10;;;;;;;21.13;11.35;;;3.00;99.90;;;;;;5100704;28;20028;-71
2021/11/23 06:55:38;;;;;;;22.63;10.57;;;3.00;99.90;;;;;;5098680;28;20051;-73
2021/11/23 06:58:05;;;;;;;18.80;10.60;;;3.10;99.90;;;;;;5100368;28;20027;-71
2021/11/23 07:00:33;;;;;;;20.65;11.18;;;3.10;99.90;;;;;;5099125;28;20442;-75
2021/11/23 07:03:00;;;;;;;17.02;9.82;;;3.10;99.90;;;;;;5097752;28;20447;-74
2021/11/23 07:05:27;;;;;;;16.98;9.25;;;3.10;99.90;;;;;;5098590;28;20027;-74
2021/11/23 07:07:56;;;;;;;20.23;11.02;;;3.10;99.90;;;;;;5098196;28;20336;-75
2021/11/23 07:10:25;;;;;;;23.88;12.00;;;3.20;99.90;;;;;;5099237;28;20044;-74
2021/11/23 07:12:53;;;;;;;20.88;11.40;;;3.20;99.90;;;;;;5099237;28;20020;-81
2021/11/23 07:15:20;;;;;;;16.25;8.70;;;3.20;99.90;;;;;;5097985;28;20024;-75
2021/11/23 07:17:48;;;;;;;22.38;11.52;;;3.20;99.90;;;;;;5096128;28;20331;-73
2021/11/23 07:20:16;;;;;;;23.65;11.55;;;3.20;99.90;;;;;;5098694;28;20439;-75
2021/11/23 07:22:43;;;;;;;22.15;11.73;;;3.30;99.90;;;;;;5099065;28;20081;-74
2021/11/23 07:25:11;;;;;;;25.98;13.25;;;3.30;99.90;;;;;;5099082;28;20028;-74
2021/11/23 07:27:39;;;;;;;25.83;11.55;;;3.30;99.90;;;;;;5098237;28;20051;-75
2021/11/23 07:30:07;;;;;;;24.38;11.02;;;3.30;99.90;;;;;;5097677;28;20032;-76
2021/11/23 07:32:35;;;;;;;18.98;9.60;;;3.30;99.90;;;;;;5098890;28;20024;-75
2021/11/23 07:35:04;;;;;;;25.75;12.20;;;3.30;99.90;;;;;;5099985;28;20366;-76
2021/11/23 07:37:38;;;;;;;25.40;12.15;;;3.40;99.90;;;;;;5098578;28;20036;-75
2021/11/23 07:40:08;;;;;;;23.75;11.95;;;3.40;99.90;;;;;;5098781;28;20027;-74
2021/11/23 07:42:36;;;;;;;22.30;11.30;;;3.40;99.90;;;;;;5099165;28;20116;-73
2021/11/23 07:45:04;;;;;;;27.70;13.05;;;3.40;99.90;;;;;;5098595;28;20016;-70
2021/11/23 07:47:32;;;;;;;25.48;12.45;;;3.40;99.90;;;;;;5099089;28;20044;-70
2021/11/23 07:50:00;;;;;;;27.17;14.02;;;3.40;99.90;;;;;;5098121;28;20451;-70
2021/11/23 07:52:28;;;;;;;30.17;13.35;;;3.50;99.90;;;;;;5098365;28;20028;-70
2021/11/23 07:54:55;;;;;;;27.98;13.48;;;3.50;99.90;;;;;;5098056;28;20339;-71
2021/11/23 07:57:23;;;;;;;25.83;11.98;;;3.50;99.90;;;;;;5098823;28;20045;-71
2021/11/23 07:59:50;;;;;;;26.42;13.40;;;3.50;99.90;;;;;;5099206;28;20438;-71
2021/11/23 08:02:18;;;;;;;25.67;12.15;;;3.50;99.90;;;;;;5099158;28;20039;-71
2021/11/23 08:04:46;;;;;;;28.23;12.82;;;3.60;99.90;;;;;;5099159;28;20031;-71
2021/11/23 08:07:13;;;;;;;28.50;13.43;;;3.60;99.90;;;;;;5099076;28;20055;-71
2021/11/23 08:09:43;;;;;;;25.88;13.65;;;3.60;99.90;;;;;;5099574;28;20024;-78
2021/11/23 08:12:11;;;;;;;23.92;12.40;;;3.60;99.90;;;;;;5098924;28;20046;-69
2021/11/23 08:14:39;;;;;;;30.77;13.45;;;3.70;99.90;;;;;;5098880;28;20137;-69
2021/11/23 08:17:06;;;;;;;30.10;13.35;;;3.70;99.90;;;;;;5098362;28;20024;-69
2021/11/23 08:19:34;;;;;;;27.13;11.98;;;3.70;99.90;;;;;;5098656;28;20399;-69
2021/11/23 08:22:01;;;;;;;31.13;13.68;;;3.80;99.90;;;;;;5097892;28;20027;-69
2021/11/23 08:24:29;;;;;;;29.30;13.23;;;3.80;99.90;;;;;;5096694;28;20069;-69
2021/11/23 08:26:59;;;;;;;30.70;15.20;;;3.80;99.90;;;;;;5098290;28;20392;-70
2021/11/23 08:29:27;;;;;;;28.92;15.07;;;3.80;99.90;;;;;;5098663;28;20389;-69
2021/11/23 08:31:55;;;;;;;31.92;14.98;;;3.80;99.90;;;;;;5097947;28;20099;-69
2021/11/23 08:34:24;;;;;;;30.90;12.60;;;3.90;99.90;;;;;;5098329;28;20027;-69
2021/11/23 08:36:51;;;;;;;29.38;12.60;;;3.90;99.90;;;;;;5095958;28;20020;-70
2021/11/23 08:39:19;;;;;;;30.58;13.23;;;4.00;99.90;;;;;;5097688;28;20021;-69
2021/11/23 08:41:47;;;;;;;29.05;12.50;;;4.00;99.90;;;;;;5098461;28;20016;-69
2021/11/23 08:44:15;;;;;;;27.63;11.48;;;4.00;99.90;;;;;;5098530;28;20024;-69
2021/11/23 08:46:43;;;;;;;30.02;12.82;;;4.00;99.90;;;;;;5098453;28;20054;-70
2021/11/23 08:49:11;;;;;;;25.90;11.95;;;4.10;99.90;;;;;;5099010;28;20016;-69
2021/11/23 08:51:41;;;;;;;26.52;11.80;;;4.10;99.90;;;;;;5098788;28;20307;-69
2021/11/23 08:54:10;;;;;;;31.55;12.27;;;4.10;99.90;;;;;;5098415;28;20024;-70
2021/11/23 08:56:45;;;;;;;28.20;12.32;;;4.10;99.90;;;;;;5097407;28;20052;-69
2021/11/23 08:59:15;;;;;;;28.15;12.68;;;4.10;99.90;;;;;;5097299;28;20042;-69
2021/11/23 09:01:44;;;;;;;30.45;12.82;;;4.20;99.90;;;;;;5097077;28;20028;-70
2021/11/23 09:04:12;;;;;;;32.88;12.20;;;4.20;99.90;;;;;;5097099;28;20052;-69
2021/11/23 09:06:41;;;;;;;32.70;12.88;;;4.20;99.90;;;;;;5097264;28;20078;-68
2021/11/23 09:09:09;;;;;;;26.92;12.07;;;4.20;99.90;;;;;;5097282;28;20024;-68
2021/11/23 09:11:38;;;;;;;23.05;9.88;;;4.20;99.90;;;;;;5097601;28;20052;-69
2021/11/23 09:14:08;;;;;;;29.45;12.02;;;4.20;99.90;;;;;;5096984;28;20084;-69
2021/11/23 09:16:36;;;;;;;27.25;12.10;;;4.20;99.90;;;;;;5097142;28;20024;-69
2021/11/23 09:19:05;;;;;;;25.92;11.15;;;4.20;99.90;;;;;;5097865;28;20510;-69
2021/11/23 09:21:32;;;;;;;34.03;12.75;;;4.20;99.90;;;;;;5097936;28;20028;-69
2021/11/23 09:24:00;;;;;;;30.05;10.98;;;4.20;99.90;;;;;;5097838;28;20052;-69
2021/11/23 09:26:29;;;;;;;23.50;11.68;;;4.20;99.90;;;;;;5096645;28;20074;-69
2021/11/23 09:28:57;;;;;;;31.52;12.75;;;4.20;99.90;;;;;;5097947;28;20027;-69
2021/11/23 09:31:25;;;;;;;24.92;12.60;;;4.20;99.90;;;;;;5097779;28;20051;-69
2021/11/23 09:33:53;;;;;;;31.75;11.85;;;4.20;99.90;;;;;;5097653;28;20032;-69
2021/11/23 09:36:21;;;;;;;32.92;14.55;;;4.20;99.90;;;;;;5095743;28;20020;-69
2021/11/23 09:38:48;;;;;;;35.40;16.45;;;4.30;99.90;;;;;;5095706;28;20028;-70
2021/11/23 09:41:16;;;;;;;38.22;15.10;;;4.30;99.90;;;;;;5097282;28;20020;-69
2021/11/23 09:43:43;;;;;;;30.33;13.10;;;4.30;99.90;;;;;;5096978;28;20016;-70
2021/11/23 09:46:11;;;;;;;33.50;15.23;;;4.30;99.90;;;;;;5095516;28;20428;-69
2021/11/23 09:48:43;;;;;;;31.40;13.00;;;4.40;99.90;;;;;;5097955;28;20058;-69
2021/11/23 09:51:18;;;;;;;29.00;11.55;;;4.40;99.90;;;;;;5099695;28;20056;-69
2021/11/23 09:53:47;;;;;;;23.33;11.75;;;4.50;99.90;;;;;;5101530;28;20032;-69
2021/11/23 09:56:14;;;;;;;28.80;12.02;;;4.60;99.90;;;;;;5101382;28;20048;-69
2021/11/23 09:58:42;;;;;;;26.67;10.40;;;4.60;99.90;;;;;;5101753;28;20024;-69
2021/11/23 10:01:11;;;;;;;30.48;11.73;;;4.60;99.90;;;;;;5100489;28;20020;-69
2021/11/23 10:03:40;;;;;;;23.90;11.25;;;4.60;99.90;;;;;;5101537;28;20407;-69
2021/11/23 10:06:21;;;;;;;26.08;10.75;;;4.60;99.90;;;;;;5101608;28;20016;-69
2021/11/23 10:08:53;;;;;;;23.98;10.57;;;4.70;99.90;;;;;;5101644;28;20313;-70
2021/11/23 10:11:26;;;;;;;29.08;12.15;;;4.70;99.90;;;;;;5101147;28;20024;-70
2021/11/23 10:13:57;;;;;;;21.67;10.85;;;4.80;99.90;;;;;;5099656;28;20325;-69
2021/11/23 10:16:37;;;;;;;25.23;10.73;;;4.80;99.90;;;;;;5100669;28;20412;-69
2021/11/23 10:19:11;;;;;;;20.40;9.82;;;4.90;99.90;;;;;;5101303;28;20312;-70
2021/11/23 10:21:56;;;;;;;19.67;8.27;;;4.90;99.90;;;;;;5100256;28;20020;-69
2021/11/23 10:24:24;;;;;;;19.45;9.98;;;4.90;99.90;;;;;;5100183;28;20024;-70
2021/11/23 10:26:53;;;;;;;15.43;7.78;;;4.90;99.90;;;;;;5100174;28;20020;-70
2021/11/23 10:29:20;;;;;;;18.55;7.95;;;4.90;99.90;;;;;;5100296;28;20027;-70
2021/11/23 10:31:48;;;;;;;19.15;8.45;;;4.80;99.90;;;;;;5099334;28;20025;-69
2021/11/23 10:34:18;;;;;;;19.23;9.25;;;4.80;99.90;;;;;;5101055;28;20031;-69
2021/11/23 10:36:49;;;;;;;26.85;9.88;;;4.80;99.90;;;;;;5101183;28;20414;-69
2021/11/23 10:39:25;;;;;;;22.58;10.18;;;4.80;99.90;;;;;;5100829;28;20032;-69
2021/11/23 10:41:58;;;;;;;38.28;11.30;;;4.80;99.90;;;;;;5101429;28;20300;-69
2021/11/23 10:44:31;;;;;;;31.02;10.88;;;4.80;99.90;;;;;;5100801;28;20043;-69
2021/11/23 10:47:10;;;;;;;26.40;10.45;;;4.70;99.90;;;;;;5100777;28;20077;-69
2021/11/23 10:49:46;;;;;;;28.17;11.10;;;4.70;99.90;;;;;;5099788;28;20366;-69
2021/11/23 10:52:30;;;;;;;23.15;8.57;;;4.70;99.90;;;;;;5099768;28;20022;-69
2021/11/23 10:54:57;;;;;;;37.20;10.60;;;4.80;99.90;;;;;;5099975;28;20105;-69
2021/11/23 10:57:25;;;;;;;31.35;12.57;;;4.70;99.90;;;;;;5099582;28;20031;-69
2021/11/23 10:59:53;;;;;;;30.15;11.68;;;4.80;99.90;;;;;;5099725;28;20024;-70
2021/11/23 11:02:20;;;;;;;31.15;11.15;;;4.80;99.90;;;;;;5099384;28;20043;-69
2021/11/23 11:04:53;;;;;;;30.25;14.13;;;4.90;99.90;;;;;;5099590;28;20020;-69
2021/11/23 11:07:26;;;;;;;33.17;12.68;;;5.00;99.90;;;;;;5100128;28;20024;-69
2021/11/23 11:09:56;;;;;;;28.63;10.75;;;5.00;99.90;;;;;;5100300;28;20028;-74
2021/11/23 11:12:24;;;;;;;29.75;11.40;;;5.10;99.90;;;;;;5100166;28;20484;-75
2021/11/23 11:14:52;;;;;;;33.67;11.82;;;5.20;99.90;;;;;;5100362;28;20028;-75
2021/11/23 11:17:24;;;;;;;29.05;10.77;;;5.30;99.90;;;;;;5100669;28;20400;-74
2021/11/23 11:19:54;;;;;;;26.23;11.40;;;5.40;99.90;;;;;;5100151;28;20477;-75
2021/11/23 11:22:23;;;;;;;25.50;9.88;;;5.50;99.90;;;;;;5100046;28;20064;-71
2021/11/23 11:25:23;;;;;;;24.45;10.10;;;5.70;99.90;;;;;;5099876;28;20016;-80
2021/11/23 11:27:51;;;;;;;24.42;9.00;;;5.70;99.90;;;;;;5099007;28;20024;-71
2021/11/23 11:30:39;;;;;;;23.58;9.20;;;5.80;99.90;;;;;;5098951;28;20297;-70
2021/11/23 11:33:08;;;;;;;26.65;10.35;;;5.70;99.90;;;;;;5098951;28;20021;-71
2021/11/23 11:35:44;;;;;;;25.60;10.48;;;5.70;99.90;;;;;;5099380;28;20023;-71
2021/11/23 11:38:29;;;;;;;24.15;9.70;;;5.70;99.90;;;;;;5098514;28;20020;-71
2021/11/23 11:41:02;;;;;;;27.08;10.88;;;5.70;99.90;;;;;;5099322;28;20308;-71
2021/11/23 11:43:40;;;;;;;24.02;9.13;;;5.70;99.90;;;;;;5099059;28;20321;-71
2021/11/23 11:46:12;;;;;;;25.63;9.73;;;5.70;99.90;;;;;;5099409;28;20084;-71
2021/11/23 11:48:40;;;;;;;26.13;10.30;;;5.60;99.90;;;;;;5099851;28;20060;-71
2021/11/23 11:51:07;;;;;;;23.15;9.70;;;5.60;99.90;;;;;;5099929;28;20107;-71
2021/11/23 11:53:45;;;;;;;24.58;9.88;;;5.60;99.90;;;;;;5100127;28;20024;-71
2021/11/23 11:56:15;;;;;;;22.92;9.10;;;5.60;99.90;;;;;;5099097;28;20384;-71
2021/11/23 11:58:53;;;;;;;27.15;12.13;;;5.60;99.90;;;;;;5098185;28;20020;-71
2021/11/23 12:01:25;;;;;;;23.52;10.32;;;5.70;99.90;;;;;;5099729;28;20023;-71
2021/11/23 12:04:14;;;;;;;25.98;10.50;;;5.70;99.90;;;;;;5098527;28;20099;-71
2021/11/23 12:07:00;;;;;;;22.60;9.90;;;5.80;99.90;;;;;;5098243;28;20099;-71
2021/11/23 12:09:32;;;;;;;22.63;9.90;;;5.80;99.90;;;;;;5098822;28;20085;-71
2021/11/23 12:12:24;;;;;;;23.08;10.88;;;5.70;99.90;;;;;;5096241;28;20443;-71
2021/11/23 12:15:07;;;;;;;21.52;9.48;;;5.70;99.90;;;;;;5098859;28;20028;-71
2021/11/23 12:18:03;;;;;;;24.05;10.40;;;5.60;99.90;;;;;;5097080;28;20360;-71
2021/11/23 12:21:03;;;;;;;22.52;9.63;;;5.60;99.90;;;;;;5098277;28;20412;-71
2021/11/23 12:23:38;;;;;;;23.02;10.00;;;5.60;99.90;;;;;;5098868;28;20324;-71
2021/11/23 12:26:18;;;;;;;22.98;10.98;;;5.60;99.90;;;;;;5097683;28;20023;-71
2021/11/23 12:29:01;;;;;;;30.85;11.35;;;5.60;99.90;;;;;;5099025;28;20028;-71
2021/11/23 12:31:44;;;;;;;24.27;10.32;;;5.50;99.90;;;;;;5099272;28;20032;-71
2021/11/23 12:34:12;;;;;;;23.35;10.82;;;5.50;99.90;;;;;;5099244;28;20055;-71
2021/11/23 12:36:49;;;;;;;25.67;11.55;;;5.60;99.90;;;;;;5097513;28;20069;-71
2021/11/23 12:39:20;;;;;;;26.30;11.20;;;5.50;99.90;;;;;;5098646;28;20031;-71
2021/11/23 12:41:57;;;;;;;23.15;10.00;;;5.60;99.90;;;;;;5096453;28;20020;-71
2021/11/23 12:44:34;;;;;;;21.95;10.80;;;5.60;99.90;;;;;;5097582;28;20316;-71
2021/11/23 12:47:11;;;;;;;23.80;10.48;;;5.60;99.90;;;;;;5097113;28;20028;-71
2021/11/23 12:49:40;;;;;;;22.67;10.10;;;5.60;99.90;;;;;;5097530;28;20020;-71